Airfield :
LOGIN :

Register | Disclaimer

   EN    FR    IT 

 










Legend :    VFR   Marginal VFR   IFR   Intensive IFR   Very Intensive IFR
Visi :
Ceiling :
>= 8 km
>= 3000ft
5 to 8 km
1000 to 3000 ft
1500m to 5 km
500 to 1000 ft
800 to 1500m
200 to 500 ft
< 800m
< 200 ft
Symbols :   Thunderstorms  Fog  Heavy snow  Heavy precipitations  Wind > 20 kt
SIGMETs :     Misc.  Thunderstorms  Icing  Turbulence  Mountain Waves  Volcanic Ashes







- Airport Elevation : 465 ft
- IATA code : LEJ


EDDP - Leipzig Halle

CURRENT METAR :
  • 191150Z 27012KT 240V310 CAVOK 25/11 Q1022 NOSIG

EXPIRED METARs :
  • 191120Z 27011KT 230V300 CAVOK 25/12 Q1022 NOSIG
  • 191050Z 26008KT 230V290 CAVOK 24/11 Q1022 NOSIG
  • 191020Z VRB09KT CAVOK 24/11 Q1022 NOSIG
  • 190950Z 24007KT 210V290 CAVOK 25/11 Q1022 NOSIG
  • 190920Z 24006KT 180V320 9999 SCT042 23/12 Q1022 NOSIG

TAF TAF EDDP
Valid from the 19 at 12:00 until the 20 at 12:00 UTC


191100Z 1912/2012 29009KT CAVOK
BECMG 1918/1921 VRB03KT
BECMG 2005/2008 22007KT
No reported NOTAMs for that airfield.



MET'MAP, your aeronautical weather chart ! - Copyright ORBIFLY December 2007 - Disclaimer

ORBIFLY MET'MAP TEAM :

Programming & Development : Alexandra Zaïnal
Concept & Development : Baudouin d'Aumeries
Co-Development & Prog : Marc-Olivier Méhu
Technical & hardware support : Manuel Goepfert

Contact : metmap@orbifly.com




SOURCES & CREDITS :

   NOAA